createdAt,value
2017-09-09T00:00:26.982Z,14.7
2017-09-09T00:01:27.723Z,14.7
2017-09-09T00:02:28.524Z,14.8
2017-09-09T00:03:29.532Z,14.7
2017-09-09T00:04:30.285Z,14.7
2017-09-09T00:05:31.423Z,14.8
2017-09-09T00:06:32.232Z,14.8
2017-09-09T00:07:32.981Z,14.8
2017-09-09T00:08:34.037Z,14.7
2017-09-09T00:09:34.760Z,14.7
2017-09-09T00:10:35.492Z,14.8
2017-09-09T00:11:36.223Z,14.7
2017-09-09T00:12:36.950Z,14.8
2017-09-09T00:13:37.943Z,14.7
2017-09-09T00:14:38.681Z,14.7
2017-09-09T00:15:39.411Z,14.8
2017-09-09T00:16:40.160Z,14.7
2017-09-09T00:17:40.886Z,14.7
2017-09-09T00:18:42.029Z,14.7
2017-09-09T00:19:42.753Z,14.7
2017-09-09T00:20:43.542Z,14.8
2017-09-09T00:21:44.261Z,14.8
2017-09-09T00:22:45.004Z,14.7
2017-09-09T00:23:46.141Z,14.8
2017-09-09T00:24:46.891Z,14.7
2017-09-09T00:25:47.627Z,14.8
2017-09-09T00:26:48.371Z,14.8
2017-09-09T00:27:49.102Z,14.7
2017-09-09T00:28:49.909Z,14.7
2017-09-09T00:29:50.635Z,14.8
2017-09-09T00:30:51.431Z,14.7
2017-09-09T00:31:52.372Z,14.7
2017-09-09T00:32:53.169Z,14.8
2017-09-09T00:33:53.891Z,14.6
2017-09-09T00:34:54.615Z,14.7
2017-09-09T00:35:55.359Z,14.8
2017-09-09T00:36:56.446Z,14.8
2017-09-09T00:37:57.180Z,14.6
2017-09-09T00:38:57.916Z,14.7
2017-09-09T00:39:58.700Z,14.7
2017-09-09T00:40:59.441Z,14.6
2017-09-09T00:42:00.630Z,14.7
2017-09-09T00:43:01.370Z,14.7
2017-09-09T00:44:02.141Z,14.7
2017-09-09T00:45:02.871Z,14.7
2017-09-09T00:46:03.602Z,14.8
2017-09-09T00:47:04.675Z,14.8
2017-09-09T00:48:05.473Z,14.7
2017-09-09T00:49:06.281Z,14.6
2017-09-09T00:50:07.020Z,14.7
2017-09-09T00:51:07.761Z,14.7
2017-09-09T00:52:08.699Z,14.7
2017-09-09T00:53:09.426Z,14.7
2017-09-09T00:54:10.164Z,14.7
2017-09-09T00:55:10.942Z,14.7
2017-09-09T00:56:11.734Z,14.7
2017-09-09T00:57:12.661Z,14.7
2017-09-09T00:58:13.381Z,14.6
2017-09-09T00:59:14.109Z,14.6
2017-09-09T01:00:14.847Z,14.7
2017-09-09T01:01:15.640Z,14.8
2017-09-09T01:02:16.371Z,14.7
2017-09-09T01:03:17.093Z,14.7
2017-09-09T01:04:17.821Z,14.6
2017-09-09T01:05:18.571Z,14.7
2017-09-09T01:06:19.306Z,14.7
2017-09-09T01:07:20.393Z,14.6
2017-09-09T01:08:21.132Z,14.7
2017-09-09T01:09:21.910Z,14.7
2017-09-09T01:10:22.656Z,14.7
2017-09-09T01:11:23.440Z,14.6
2017-09-09T01:12:24.531Z,14.7
2017-09-09T01:13:25.265Z,14.7
2017-09-09T01:14:26.056Z,14.6
2017-09-09T01:15:26.802Z,14.7
2017-09-09T01:16:27.620Z,14.6
2017-09-09T01:17:28.761Z,14.7
2017-09-09T01:18:29.481Z,14.6
2017-09-09T01:19:30.212Z,14.7
2017-09-09T01:20:31.028Z,14.6
2017-09-09T01:21:31.757Z,14.6
2017-09-09T01:22:32.853Z,14.7
2017-09-09T01:23:33.571Z,14.7
2017-09-09T01:24:34.293Z,14.6
2017-09-09T01:25:35.021Z,14.6
2017-09-09T01:26:35.766Z,14.7
2017-09-09T01:27:36.553Z,14.6
2017-09-09T01:28:37.291Z,14.6
2017-09-09T01:29:38.041Z,14.7
2017-09-09T01:30:39.071Z,14.7
2017-09-09T01:31:39.871Z,14.6
2017-09-09T01:32:40.594Z,14.6
2017-09-09T01:33:41.330Z,14.7
2017-09-09T01:34:42.056Z,14.6
2017-09-09T01:35:43.052Z,14.7
2017-09-09T01:36:43.776Z,14.7
2017-09-09T01:37:44.503Z,14.7
2017-09-09T01:38:45.226Z,14.7
2017-09-09T01:39:45.961Z,14.7
2017-09-09T01:40:46.991Z,14.7
2017-09-09T01:41:47.722Z,14.7
2017-09-09T01:42:48.511Z,14.7
2017-09-09T01:43:49.240Z,14.7
2017-09-09T01:44:49.976Z,14.6
2017-09-09T01:45:51.174Z,14.7
2017-09-09T01:46:51.971Z,14.7
2017-09-09T01:47:52.710Z,14.6
2017-09-09T01:48:53.436Z,14.6
2017-09-09T01:49:54.167Z,14.6
2017-09-09T01:50:55.376Z,14.6
2017-09-09T01:51:56.101Z,14.7
2017-09-09T01:52:56.841Z,14.7
2017-09-09T01:53:57.572Z,14.7
2017-09-09T01:54:58.300Z,14.7
2017-09-09T01:55:59.421Z,14.7
2017-09-09T01:57:00.142Z,14.7
2017-09-09T01:58:00.951Z,14.8
2017-09-09T01:59:01.682Z,14.7
2017-09-09T02:00:02.410Z,14.7
2017-09-09T02:01:03.504Z,14.7
2017-09-09T02:02:04.316Z,14.6
2017-09-09T02:03:05.240Z,14.7
2017-09-09T02:04:05.973Z,14.7
2017-09-09T02:05:06.812Z,14.6
2017-09-09T02:06:07.524Z,14.7
2017-09-09T02:07:08.245Z,14.7
2017-09-09T02:08:08.980Z,14.7
2017-09-09T02:09:10.130Z,14.7
2017-09-09T02:10:10.861Z,14.7
2017-09-09T02:11:11.591Z,14.6
2017-09-09T02:12:12.326Z,14.7
2017-09-09T02:13:13.114Z,14.7
2017-09-09T02:14:14.151Z,14.7
2017-09-09T02:15:14.889Z,14.7
2017-09-09T02:16:15.632Z,14.7
2017-09-09T02:17:16.431Z,14.7
2017-09-09T02:18:17.165Z,14.6
2017-09-09T02:19:18.301Z,14.6
2017-09-09T02:20:19.032Z,14.5
2017-09-09T02:21:19.838Z,14.7
2017-09-09T02:22:20.601Z,14.6
2017-09-09T02:23:21.331Z,14.7
2017-09-09T02:24:22.373Z,14.7
2017-09-09T02:25:23.182Z,14.6
2017-09-09T02:26:23.980Z,14.6
2017-09-09T02:27:24.716Z,14.5
2017-09-09T02:28:25.520Z,14.7
2017-09-09T02:29:26.651Z,14.5
2017-09-09T02:30:27.399Z,14.5
2017-09-09T02:31:28.163Z,14.5
2017-09-09T02:32:28.957Z,14.5
2017-09-09T02:33:29.680Z,14.6
2017-09-09T02:34:30.773Z,14.5
2017-09-09T02:35:31.566Z,14.7
2017-09-09T02:36:32.350Z,14.6
2017-09-09T02:37:33.080Z,14.6
2017-09-09T02:38:33.861Z,14.5
2017-09-09T02:39:35.070Z,14.6
2017-09-09T02:40:35.813Z,14.6
2017-09-09T02:41:36.571Z,14.5
2017-09-09T02:42:37.308Z,14.5
2017-09-09T02:43:38.112Z,14.6
2017-09-09T02:44:39.137Z,14.6
2017-09-09T02:45:39.858Z,14.6
2017-09-09T02:46:40.588Z,14.5
2017-09-09T02:47:41.410Z,14.6
2017-09-09T02:48:42.138Z,14.6
2017-09-09T02:49:43.218Z,14.5
2017-09-09T02:50:44.027Z,14.5
2017-09-09T02:51:44.828Z,14.5
2017-09-09T02:52:45.603Z,14.6
2017-09-09T02:53:46.328Z,14.5
2017-09-09T02:54:47.383Z,14.6
2017-09-09T02:55:48.193Z,14.5
2017-09-09T02:56:49.013Z,14.5
2017-09-09T02:57:49.748Z,14.5
2017-09-09T02:58:50.549Z,14.5
2017-09-09T02:59:51.627Z,14.5
2017-09-09T03:00:52.439Z,14.6
2017-09-09T03:01:53.232Z,14.5
2017-09-09T03:02:53.970Z,14.4
2017-09-09T03:03:54.697Z,14.4
2017-09-09T03:04:55.782Z,14.5
2017-09-09T03:05:56.511Z,14.5
2017-09-09T03:06:57.250Z,14.5
2017-09-09T03:07:57.982Z,14.5
2017-09-09T03:08:58.715Z,14.4
2017-09-09T03:09:59.910Z,14.5
2017-09-09T03:11:00.646Z,14.4
2017-09-09T03:12:01.375Z,14.5
2017-09-09T03:13:02.125Z,14.5
2017-09-09T03:14:02.851Z,14.5
2017-09-09T03:15:03.777Z,14.5
2017-09-09T03:16:04.521Z,14.4
2017-09-09T03:17:05.275Z,14.5
2017-09-09T03:18:06.036Z,14.4
2017-09-09T03:19:06.775Z,14.4
2017-09-09T03:20:07.855Z,14.5
2017-09-09T03:21:08.596Z,14.4
2017-09-09T03:22:09.399Z,14.4
2017-09-09T03:23:10.132Z,14.5
2017-09-09T03:24:10.853Z,14.4
2017-09-09T03:25:11.957Z,14.4
2017-09-09T03:26:12.686Z,14.5
2017-09-09T03:27:13.415Z,14.4
2017-09-09T03:28:14.148Z,14.4
2017-09-09T03:29:14.968Z,14.4
2017-09-09T03:30:15.730Z,14.4
2017-09-09T03:31:16.869Z,14.3
2017-09-09T03:32:17.671Z,14.3
2017-09-09T03:33:18.440Z,14.4
2017-09-09T03:34:19.171Z,14.4
2017-09-09T03:35:19.923Z,14.4
2017-09-09T03:36:21.117Z,14.3
2017-09-09T03:37:21.921Z,14.4
2017-09-09T03:38:22.714Z,14.4
2017-09-09T03:39:23.446Z,14.4
2017-09-09T03:40:24.183Z,14.4
2017-09-09T03:41:25.224Z,14.4
2017-09-09T03:42:25.963Z,14.4
2017-09-09T03:43:26.682Z,14.3
2017-09-09T03:44:27.418Z,14.4
2017-09-09T03:45:28.213Z,14.4
2017-09-09T03:46:29.239Z,14.4
2017-09-09T03:47:30.019Z,14.3
2017-09-09T03:48:30.752Z,14.3
2017-09-09T03:49:31.471Z,14.3
2017-09-09T03:50:32.225Z,14.4
2017-09-09T03:51:33.314Z,14.4
2017-09-09T03:52:34.045Z,14.3
2017-09-09T03:53:34.840Z,14.3
2017-09-09T03:54:35.573Z,14.3
2017-09-09T03:55:36.721Z,14.4
2017-09-09T03:56:37.930Z,14.4
2017-09-09T03:57:39.831Z,14.3
2017-09-09T03:58:41.170Z,14.3
2017-09-09T03:59:41.867Z,14.3
2017-09-09T04:00:42.662Z,14.2
2017-09-09T04:01:43.658Z,14.4
2017-09-09T04:02:44.463Z,14.3
2017-09-09T04:03:45.195Z,14.3
2017-09-09T04:04:45.999Z,14.3
2017-09-09T04:05:46.743Z,14.3
2017-09-09T04:06:47.745Z,14.2
2017-09-09T04:07:48.560Z,14.3
2017-09-09T04:08:49.299Z,14.2
2017-09-09T04:09:50.078Z,14.3
2017-09-09T04:10:50.812Z,14.2
2017-09-09T04:11:52.014Z,14.3
2017-09-09T04:12:52.739Z,14.3
2017-09-09T04:13:53.488Z,14.2
2017-09-09T04:14:54.255Z,14.2
2017-09-09T04:15:55.073Z,14.2
2017-09-09T04:16:56.133Z,14.2
2017-09-09T04:17:56.869Z,14.2
2017-09-09T04:18:57.605Z,14.2
2017-09-09T04:19:58.420Z,14.2
2017-09-09T04:20:59.195Z,14.3
2017-09-09T04:22:00.647Z,14.3
2017-09-09T04:23:01.431Z,14.2
2017-09-09T04:24:02.237Z,14.3
2017-09-09T04:25:02.987Z,14.3
2017-09-09T04:26:03.695Z,14.3
2017-09-09T04:27:04.437Z,14.3
2017-09-09T04:28:05.874Z,14.4
2017-09-09T04:29:06.618Z,14.3
2017-09-09T04:30:07.406Z,14.3
2017-09-09T04:31:08.129Z,14.3
2017-09-09T04:32:08.882Z,14.3
2017-09-09T04:33:09.964Z,14.2
2017-09-09T04:34:10.705Z,14.3
2017-09-09T04:35:11.520Z,14.2
2017-09-09T04:36:12.264Z,14.1
2017-09-09T04:37:12.986Z,14.1
2017-09-09T04:38:14.025Z,14.1
2017-09-09T04:39:14.801Z,14.2
2017-09-09T04:40:15.608Z,14.2
2017-09-09T04:41:16.340Z,14.2
2017-09-09T04:42:17.079Z,14.2
2017-09-09T04:43:18.013Z,14.2
2017-09-09T04:44:18.764Z,14.2
2017-09-09T04:45:19.569Z,14.2
2017-09-09T04:46:20.305Z,14.2
2017-09-09T04:47:21.050Z,14.2
2017-09-09T04:48:22.233Z,14.1
2017-09-09T04:49:22.976Z,14.2
2017-09-09T04:50:23.762Z,14.2
2017-09-09T04:51:24.490Z,14.1
2017-09-09T04:52:25.219Z,14.1
2017-09-09T04:53:25.962Z,14.1
2017-09-09T04:54:26.765Z,14.1
2017-09-09T04:55:27.569Z,14.1
2017-09-09T04:56:28.664Z,14.1
2017-09-09T04:57:29.413Z,14.2
2017-09-09T04:58:30.162Z,14.1
2017-09-09T04:59:30.909Z,14.1
2017-09-09T05:00:31.684Z,14.2
2017-09-09T05:01:32.717Z,14.2
2017-09-09T05:02:33.490Z,14.1
2017-09-09T05:03:34.224Z,14.2
2017-09-09T05:04:35.044Z,14.2
2017-09-09T05:05:35.786Z,14.3
2017-09-09T05:06:36.539Z,14.3
2017-09-09T05:07:37.282Z,14.3
2017-09-09T05:08:38.324Z,14.3
2017-09-09T05:09:39.119Z,14.2
2017-09-09T05:10:39.928Z,14.3
2017-09-09T05:11:40.713Z,14.3
2017-09-09T05:12:41.500Z,14.2
2017-09-09T05:13:42.442Z,14.3
2017-09-09T05:14:43.199Z,14.3
2017-09-09T05:15:43.944Z,14.3
2017-09-09T05:16:44.684Z,14.3
2017-09-09T05:17:45.418Z,14.4
2017-09-09T05:18:46.351Z,14.2
2017-09-09T05:19:47.177Z,14.2
2017-09-09T05:20:47.948Z,14.3
2017-09-09T05:21:48.734Z,14.3
2017-09-09T05:22:49.488Z,14.2
2017-09-09T05:23:50.754Z,14.2
2017-09-09T05:24:51.480Z,14.2
2017-09-09T05:25:52.199Z,14.2
2017-09-09T05:26:52.954Z,14.3
2017-09-09T05:27:53.682Z,14.3
2017-09-09T05:28:54.853Z,14.3
2017-09-09T05:29:55.636Z,14.3
2017-09-09T05:30:56.386Z,14.3
2017-09-09T05:31:57.183Z,14.4
2017-09-09T05:32:57.919Z,14.3
2017-09-09T05:33:59.092Z,14.3
2017-09-09T05:34:59.897Z,14.3
2017-09-09T05:36:00.638Z,14.4
2017-09-09T05:37:01.376Z,14.4
2017-09-09T05:38:02.182Z,14.4
2017-09-09T05:39:02.943Z,14.4
2017-09-09T05:40:03.695Z,14.4
2017-09-09T05:41:04.793Z,14.3
2017-09-09T05:42:05.618Z,14.3
2017-09-09T05:43:06.431Z,14.3
2017-09-09T05:44:07.175Z,14.3
2017-09-09T05:45:07.907Z,14.3
2017-09-09T05:46:08.659Z,14.3
2017-09-09T05:47:09.752Z,14.2
2017-09-09T05:48:10.469Z,14.2
2017-09-09T05:49:11.207Z,14.2
2017-09-09T05:50:11.954Z,14.2
2017-09-09T05:51:12.690Z,14.1
2017-09-09T05:52:13.819Z,14.2
2017-09-09T05:53:14.580Z,14.1
2017-09-09T05:54:15.365Z,14.2
2017-09-09T05:55:16.097Z,14.1
2017-09-09T05:56:16.942Z,14.2
2017-09-09T05:57:18.085Z,14.3
2017-09-09T05:58:18.884Z,14.1
2017-09-09T05:59:19.629Z,14.1
2017-09-09T06:00:20.373Z,14.2
2017-09-09T06:01:21.156Z,14.1
2017-09-09T06:02:21.912Z,14.1
2017-09-09T06:03:23.060Z,14.1
2017-09-09T06:04:23.799Z,14.1
2017-09-09T06:05:24.599Z,14.2
2017-09-09T06:06:25.325Z,14.2
2017-09-09T06:07:26.067Z,14.1
2017-09-09T06:08:27.068Z,14.2
2017-09-09T06:09:27.802Z,14.3
2017-09-09T06:10:28.622Z,14.2
2017-09-09T06:11:29.421Z,14.2
2017-09-09T06:12:30.224Z,14.4
2017-09-09T06:13:31.359Z,14.4
2017-09-09T06:14:32.182Z,14.3
2017-09-09T06:15:32.978Z,14.3
2017-09-09T06:16:33.723Z,14.2
2017-09-09T06:17:34.533Z,14.3
2017-09-09T06:18:35.571Z,14.2
2017-09-09T06:19:36.301Z,14.3
2017-09-09T06:20:37.090Z,14.2
2017-09-09T06:21:37.838Z,14.1
2017-09-09T06:22:38.560Z,14.2
2017-09-09T06:23:39.654Z,14.2
2017-09-09T06:24:40.471Z,14.2
2017-09-09T06:25:41.219Z,14.1
2017-09-09T06:26:41.956Z,14.1
2017-09-09T06:27:42.774Z,14.2
2017-09-09T06:28:43.769Z,14.2
2017-09-09T06:29:44.560Z,14.1
2017-09-09T06:30:45.308Z,14.1
2017-09-09T06:31:46.111Z,14.1
2017-09-09T06:32:46.911Z,14.0
2017-09-09T06:33:48.015Z,13.9
2017-09-09T06:34:48.821Z,14.0
2017-09-09T06:35:49.615Z,14.0
2017-09-09T06:36:50.431Z,14.1
2017-09-09T06:37:51.163Z,14.0
2017-09-09T06:38:52.214Z,14.0
2017-09-09T06:39:52.953Z,14.1
2017-09-09T06:40:53.690Z,14.1
2017-09-09T06:41:54.423Z,14.0
2017-09-09T06:42:55.149Z,14.0
2017-09-09T06:43:56.291Z,14.0
2017-09-09T06:44:57.089Z,14.1
2017-09-09T06:45:57.834Z,14.1
2017-09-09T06:46:58.625Z,14.2
2017-09-09T06:47:59.389Z,14.3
2017-09-09T06:49:00.509Z,14.2
2017-09-09T06:50:01.263Z,14.3
2017-09-09T06:51:02.004Z,14.3
2017-09-09T06:52:02.829Z,14.3
2017-09-09T06:53:03.677Z,14.4
2017-09-09T06:54:04.383Z,14.3
2017-09-09T06:55:05.163Z,14.3
2017-09-09T06:56:05.914Z,14.3
2017-09-09T06:57:06.667Z,14.4
2017-09-09T06:58:07.384Z,14.3
2017-09-09T06:59:08.523Z,14.4
2017-09-09T07:00:09.275Z,14.4
2017-09-09T07:01:10.122Z,14.3
2017-09-09T07:02:10.860Z,14.4
2017-09-09T07:03:11.591Z,14.2
2017-09-09T07:04:12.405Z,14.3
2017-09-09T07:05:13.191Z,14.3
2017-09-09T07:06:14.320Z,14.2
2017-09-09T07:07:15.053Z,14.3
2017-09-09T07:08:15.802Z,14.2
2017-09-09T07:09:16.532Z,14.2
2017-09-09T07:10:17.359Z,14.1
2017-09-09T07:11:18.514Z,14.1
2017-09-09T07:12:19.246Z,14.0
2017-09-09T07:13:20.042Z,14.0
2017-09-09T07:14:20.782Z,13.9
2017-09-09T07:15:21.517Z,13.9
2017-09-09T07:16:22.744Z,13.9
2017-09-09T07:17:23.485Z,13.8
2017-09-09T07:18:24.220Z,13.9
2017-09-09T07:19:24.965Z,13.9
2017-09-09T07:20:25.776Z,13.9
2017-09-09T07:21:26.512Z,13.9
2017-09-09T07:22:27.523Z,13.8
2017-09-09T07:23:28.321Z,13.8
2017-09-09T07:24:29.119Z,13.8
2017-09-09T07:25:29.859Z,13.7
2017-09-09T07:26:30.604Z,13.8
2017-09-09T07:27:31.427Z,13.8
2017-09-09T07:28:32.414Z,13.8
2017-09-09T07:29:33.155Z,13.7
2017-09-09T07:30:33.949Z,13.7
2017-09-09T07:31:34.722Z,13.8
2017-09-09T07:32:36.496Z,13.8
2017-09-09T07:33:37.512Z,13.7
2017-09-09T07:34:38.247Z,13.8
2017-09-09T07:35:39.064Z,13.9
2017-09-09T07:36:39.802Z,13.9
2017-09-09T07:37:40.604Z,13.9
2017-09-09T07:38:41.739Z,14.0
2017-09-09T07:39:42.474Z,13.9
2017-09-09T07:40:43.279Z,13.9
2017-09-09T07:41:44.010Z,14.0
2017-09-09T07:42:44.744Z,14.1
2017-09-09T07:43:45.860Z,14.1
2017-09-09T07:44:46.678Z,14.0
2017-09-09T07:45:47.471Z,14.0
2017-09-09T07:46:48.218Z,13.9
2017-09-09T07:47:49.028Z,13.9
2017-09-09T07:48:50.180Z,13.8
2017-09-09T07:49:50.925Z,13.8
2017-09-09T07:50:51.709Z,13.8
2017-09-09T07:51:52.450Z,13.8
2017-09-09T07:52:53.197Z,13.8
2017-09-09T07:53:53.993Z,13.9
2017-09-09T07:54:54.742Z,13.9
2017-09-09T07:55:55.516Z,13.9
2017-09-09T07:56:56.294Z,13.9
2017-09-09T07:57:57.024Z,13.9
2017-09-09T07:58:58.144Z,14.0
2017-09-09T07:59:58.878Z,14.1
2017-09-09T08:00:59.629Z,14.1
2017-09-09T08:02:00.350Z,14.0
2017-09-09T08:03:01.142Z,13.9
2017-09-09T08:04:02.248Z,13.9
2017-09-09T08:05:03.013Z,13.9
2017-09-09T08:06:03.738Z,13.9
2017-09-09T08:07:04.478Z,13.9
2017-09-09T08:08:05.224Z,13.9
2017-09-09T08:09:06.316Z,13.9
2017-09-09T08:10:07.056Z,13.9
2017-09-09T08:11:07.821Z,13.9
2017-09-09T08:12:08.636Z,13.9
2017-09-09T08:13:09.404Z,14.0
2017-09-09T08:14:10.549Z,13.9
2017-09-09T08:15:11.286Z,13.9
2017-09-09T08:16:12.022Z,13.9
2017-09-09T08:17:12.767Z,13.8
2017-09-09T08:18:13.571Z,13.8
2017-09-09T08:19:14.621Z,13.9
2017-09-09T08:20:15.389Z,13.9
2017-09-09T08:21:16.132Z,14.0
2017-09-09T08:22:16.864Z,13.9
2017-09-09T08:23:17.683Z,14.0
2017-09-09T08:24:18.802Z,14.0
2017-09-09T08:25:19.543Z,14.0
2017-09-09T08:26:20.346Z,14.0
2017-09-09T08:27:21.145Z,14.1
2017-09-09T08:28:21.959Z,14.1
2017-09-09T08:29:22.754Z,13.9
2017-09-09T08:30:23.500Z,14.0
2017-09-09T08:31:24.289Z,14.1
2017-09-09T08:32:25.334Z,14.1
2017-09-09T08:33:26.150Z,14.3
2017-09-09T08:34:26.972Z,14.3
2017-09-09T08:35:27.761Z,14.4
2017-09-09T08:36:28.500Z,14.4
2017-09-09T08:37:29.507Z,14.5
2017-09-09T08:38:30.272Z,14.5
2017-09-09T08:39:31.018Z,14.4
2017-09-09T08:40:31.823Z,14.4
2017-09-09T08:41:32.647Z,14.3
2017-09-09T08:42:33.683Z,14.4
2017-09-09T08:43:34.422Z,14.2
2017-09-09T08:44:35.174Z,14.3
2017-09-09T08:45:35.984Z,14.2
2017-09-09T08:46:36.750Z,14.4
2017-09-09T08:47:37.953Z,14.4
2017-09-09T08:48:38.692Z,14.4
2017-09-09T08:49:39.415Z,14.4
2017-09-09T08:50:40.162Z,14.5
2017-09-09T08:51:40.989Z,14.5
2017-09-09T08:52:42.074Z,14.5
2017-09-09T08:53:42.883Z,14.5
2017-09-09T08:54:43.700Z,14.7
2017-09-09T08:55:44.434Z,14.5
2017-09-09T08:56:45.175Z,14.6
2017-09-09T08:57:45.981Z,14.5
2017-09-09T08:58:46.791Z,14.7
2017-09-09T08:59:47.592Z,14.7
2017-09-09T09:00:48.333Z,14.7
2017-09-09T09:01:49.077Z,14.9
2017-09-09T09:02:50.289Z,14.9
2017-09-09T09:03:51.082Z,14.8
2017-09-09T09:04:51.890Z,14.8
2017-09-09T09:05:52.690Z,15.0
2017-09-09T09:06:53.425Z,15.1
2017-09-09T09:07:54.426Z,15.2
2017-09-09T09:08:55.226Z,15.0
2017-09-09T09:09:55.981Z,14.9
2017-09-09T09:10:56.739Z,14.9
2017-09-09T09:11:57.468Z,14.8
2017-09-09T09:12:58.519Z,14.8
2017-09-09T09:13:59.257Z,14.6
2017-09-09T09:15:00.005Z,14.7
2017-09-09T09:16:00.825Z,14.6
2017-09-09T09:17:01.622Z,14.7
2017-09-09T09:18:02.805Z,14.6
2017-09-09T09:19:03.614Z,14.6
2017-09-09T09:20:04.348Z,14.6
2017-09-09T09:21:05.083Z,14.5
2017-09-09T09:22:05.812Z,14.5
2017-09-09T09:23:06.860Z,14.7
2017-09-09T09:24:07.678Z,14.7
2017-09-09T09:25:08.463Z,14.8
2017-09-09T09:26:09.194Z,15.0
2017-09-09T09:27:09.974Z,14.8
2017-09-09T09:28:11.037Z,14.9
2017-09-09T09:29:11.820Z,14.7
2017-09-09T09:30:12.632Z,14.7
2017-09-09T09:31:13.377Z,14.6
2017-09-09T09:32:14.194Z,15.0
2017-09-09T09:33:15.333Z,15.1
2017-09-09T09:34:16.119Z,15.3
2017-09-09T09:35:16.949Z,15.6
2017-09-09T09:36:17.774Z,15.9
2017-09-09T09:37:18.585Z,15.9
2017-09-09T09:38:19.602Z,16.0
2017-09-09T09:39:20.342Z,16.1
2017-09-09T09:40:21.086Z,16.3
2017-09-09T09:41:21.879Z,16.2
2017-09-09T09:42:22.695Z,15.9
2017-09-09T09:43:23.844Z,16.0
2017-09-09T09:44:24.584Z,16.1
2017-09-09T09:45:25.399Z,16.1
2017-09-09T09:46:26.133Z,16.1
2017-09-09T09:47:26.863Z,16.3
2017-09-09T09:48:27.962Z,16.3
2017-09-09T09:49:28.746Z,16.4
2017-09-09T09:50:29.489Z,16.3
2017-09-09T09:51:30.232Z,16.3
2017-09-09T09:52:31.034Z,15.9
2017-09-09T09:53:31.789Z,16.0
2017-09-09T09:54:32.583Z,16.2
2017-09-09T09:55:33.319Z,16.1
2017-09-09T09:56:34.059Z,16.2
2017-09-09T09:57:34.996Z,16.6
2017-09-09T09:58:35.745Z,16.6
2017-09-09T09:59:36.529Z,16.3
2017-09-09T10:00:37.264Z,16.2
2017-09-09T10:01:38.014Z,15.9
2017-09-09T10:02:39.158Z,15.8
2017-09-09T10:03:39.959Z,16.3
2017-09-09T10:04:40.698Z,16.8
2017-09-09T10:05:41.429Z,17.4
2017-09-09T10:06:42.164Z,17.5
2017-09-09T10:07:42.904Z,17.7
2017-09-09T10:08:43.732Z,18.0
2017-09-09T10:09:44.940Z,18.3
2017-09-09T10:10:45.679Z,18.5
2017-09-09T10:11:46.428Z,18.6
2017-09-09T10:12:47.164Z,18.7
2017-09-09T10:13:47.940Z,18.8
2017-09-09T10:14:49.003Z,18.1
2017-09-09T10:15:49.796Z,17.9
2017-09-09T10:16:50.537Z,17.9
2017-09-09T10:17:51.309Z,17.5
2017-09-09T10:18:52.053Z,17.7
2017-09-09T10:19:53.020Z,17.5
2017-09-09T10:20:53.749Z,17.3
2017-09-09T10:21:54.492Z,17.3
2017-09-09T10:22:55.242Z,17.4
2017-09-09T10:23:55.997Z,17.9
2017-09-09T10:24:57.050Z,18.4
2017-09-09T10:25:57.862Z,18.4
2017-09-09T10:26:58.605Z,18.3
2017-09-09T10:27:59.398Z,18.3
2017-09-09T10:29:00.148Z,18.5
2017-09-09T10:30:00.915Z,18.3
2017-09-09T10:31:01.741Z,18.0
2017-09-09T10:32:02.520Z,17.6
2017-09-09T10:33:03.622Z,17.5
2017-09-09T10:34:04.416Z,17.3
2017-09-09T10:35:05.233Z,17.1
2017-09-09T10:36:05.985Z,17.0
2017-09-09T10:37:06.801Z,17.0
2017-09-09T10:38:07.862Z,16.6
2017-09-09T10:39:08.603Z,16.4
2017-09-09T10:40:09.359Z,16.3
2017-09-09T10:41:10.186Z,16.4
2017-09-09T10:42:10.910Z,16.2
2017-09-09T10:43:11.905Z,16.2
2017-09-09T10:44:12.651Z,16.2
2017-09-09T10:45:13.397Z,15.9
2017-09-09T10:46:14.209Z,16.1
2017-09-09T10:47:15.010Z,16.0
2017-09-09T10:48:16.088Z,15.7
2017-09-09T10:49:16.833Z,15.8
2017-09-09T10:50:17.577Z,15.7
2017-09-09T10:51:18.389Z,15.5
2017-09-09T10:52:19.139Z,15.5
2017-09-09T10:53:20.183Z,15.4
2017-09-09T10:54:20.918Z,15.4
2017-09-09T10:55:21.668Z,15.4
2017-09-09T10:56:22.461Z,15.4
2017-09-09T10:57:23.283Z,15.3
2017-09-09T10:58:24.382Z,15.4
2017-09-09T10:59:25.133Z,15.5
2017-09-09T11:00:25.872Z,15.5
2017-09-09T11:01:26.673Z,15.9
2017-09-09T11:02:27.405Z,16.1
2017-09-09T11:03:28.432Z,16.3
2017-09-09T11:04:29.238Z,16.3
2017-09-09T11:05:29.972Z,16.2
2017-09-09T11:06:30.779Z,16.1
2017-09-09T11:07:31.533Z,16.0
2017-09-09T11:08:32.754Z,16.0
2017-09-09T11:09:33.488Z,15.9
2017-09-09T11:10:34.222Z,15.9
2017-09-09T11:11:34.964Z,16.0
2017-09-09T11:12:35.694Z,16.2
2017-09-09T11:13:36.847Z,16.3
2017-09-09T11:14:37.614Z,16.3
2017-09-09T11:15:38.349Z,16.2
2017-09-09T11:16:39.103Z,16.2
2017-09-09T11:17:39.902Z,16.2
2017-09-09T11:18:40.929Z,16.3
2017-09-09T11:19:41.677Z,16.2
2017-09-09T11:20:42.450Z,16.1
2017-09-09T11:21:43.191Z,16.2
2017-09-09T11:22:44.011Z,16.2
2017-09-09T11:23:45.063Z,16.2
2017-09-09T11:24:45.862Z,16.3
2017-09-09T11:25:46.612Z,16.3
2017-09-09T11:26:47.423Z,16.3
2017-09-09T11:27:48.201Z,16.6
2017-09-09T11:28:49.246Z,16.7
2017-09-09T11:29:50.047Z,16.8
2017-09-09T11:30:50.860Z,17.0
2017-09-09T11:31:51.654Z,17.1
2017-09-09T11:32:52.379Z,17.2
2017-09-09T11:33:53.359Z,17.2
2017-09-09T11:34:54.103Z,17.0
2017-09-09T11:35:54.836Z,17.0
2017-09-09T11:36:55.591Z,17.1
2017-09-09T11:37:56.408Z,17.1
2017-09-09T11:38:57.184Z,17.1
2017-09-09T11:39:57.924Z,17.2
2017-09-09T11:40:58.665Z,17.2
2017-09-09T11:41:59.470Z,17.3
2017-09-09T11:43:00.554Z,17.4
2017-09-09T11:44:01.380Z,17.2
2017-09-09T11:45:02.137Z,17.2
2017-09-09T11:46:02.983Z,17.2
2017-09-09T11:47:03.679Z,17.0
2017-09-09T11:48:04.525Z,17.0
2017-09-09T11:49:05.337Z,16.9
2017-09-09T11:50:06.070Z,16.9
2017-09-09T11:51:06.811Z,16.8
2017-09-09T11:52:07.588Z,16.8
2017-09-09T11:53:08.786Z,16.9
2017-09-09T11:54:09.604Z,16.9
2017-09-09T11:55:10.405Z,16.9
2017-09-09T11:56:11.225Z,16.8
2017-09-09T11:57:12.023Z,16.7
2017-09-09T11:58:12.972Z,16.7
2017-09-09T11:59:13.760Z,16.6
2017-09-09T12:00:14.509Z,16.7
2017-09-09T12:01:15.249Z,16.8
2017-09-09T12:02:15.991Z,16.7
2017-09-09T12:03:16.891Z,16.7
2017-09-09T12:04:17.804Z,16.6
2017-09-09T12:05:18.597Z,16.7
2017-09-09T12:06:19.370Z,16.6
2017-09-09T12:07:21.013Z,16.5
2017-09-09T12:08:22.363Z,16.5
2017-09-09T12:09:23.245Z,16.4
2017-09-09T12:10:24.001Z,16.5
2017-09-09T12:11:24.895Z,16.6
2017-09-09T12:12:25.642Z,16.5
2017-09-09T12:13:26.803Z,16.4
2017-09-09T12:14:27.618Z,16.4
2017-09-09T12:15:28.355Z,16.5
2017-09-09T12:16:29.728Z,16.5
2017-09-09T12:17:30.418Z,16.6
2017-09-09T12:18:31.626Z,16.6
2017-09-09T12:19:32.420Z,16.5
2017-09-09T12:20:33.255Z,16.8
2017-09-09T12:21:34.066Z,17.3
2017-09-09T12:22:34.911Z,17.0
2017-09-09T12:23:35.683Z,16.9
2017-09-09T12:24:36.471Z,17.0
2017-09-09T12:25:37.572Z,17.3
2017-09-09T12:26:38.375Z,17.7
2017-09-09T12:27:39.185Z,18.2
2017-09-09T12:28:40.033Z,18.6
2017-09-09T12:29:40.774Z,18.8
2017-09-09T12:30:41.976Z,18.8
2017-09-09T12:31:42.779Z,19.1
2017-09-09T12:32:43.523Z,19.2
2017-09-09T12:33:44.252Z,19.1
2017-09-09T12:34:44.993Z,19.3
2017-09-09T12:35:46.044Z,19.1
2017-09-09T12:36:46.791Z,19.0
2017-09-09T12:37:47.574Z,19.2
2017-09-09T12:38:48.304Z,19.0
2017-09-09T12:39:49.049Z,18.7
2017-09-09T12:40:50.208Z,18.8
2017-09-09T12:41:50.929Z,19.1
2017-09-09T12:42:51.670Z,19.7
2017-09-09T12:43:52.415Z,19.9
2017-09-09T12:44:53.220Z,20.5
2017-09-09T12:45:54.320Z,21.2
2017-09-09T12:46:55.217Z,21.2
2017-09-09T12:47:55.975Z,21.0
2017-09-09T12:48:56.783Z,20.3
2017-09-09T12:49:57.525Z,20.6
2017-09-09T12:50:58.553Z,20.4
2017-09-09T12:51:59.292Z,20.3
2017-09-09T12:53:00.038Z,19.9
2017-09-09T12:54:00.768Z,19.6
2017-09-09T12:55:01.519Z,19.4
2017-09-09T12:56:02.748Z,19.0
2017-09-09T12:57:03.533Z,18.8
2017-09-09T12:58:04.274Z,19.0
2017-09-09T12:59:05.033Z,18.9
2017-09-09T13:00:05.776Z,18.9
2017-09-09T13:01:06.878Z,18.8
2017-09-09T13:02:07.631Z,18.4
2017-09-09T13:03:08.364Z,18.1
2017-09-09T13:04:09.108Z,18.0
2017-09-09T13:05:09.951Z,17.8
2017-09-09T13:06:11.089Z,17.9
2017-09-09T13:07:11.815Z,17.8
2017-09-09T13:08:12.554Z,17.7
2017-09-09T13:09:13.378Z,17.6
2017-09-09T13:10:14.184Z,17.6
2017-09-09T13:11:15.376Z,17.7
2017-09-09T13:12:16.132Z,17.5
2017-09-09T13:13:16.948Z,17.3
2017-09-09T13:14:17.685Z,17.3
2017-09-09T13:15:18.433Z,17.1
2017-09-09T13:16:19.374Z,17.2
2017-09-09T13:17:20.164Z,17.1
2017-09-09T13:18:20.976Z,17.0
2017-09-09T13:19:21.782Z,16.9
2017-09-09T13:20:22.583Z,16.8
2017-09-09T13:21:23.773Z,16.8
2017-09-09T13:22:24.513Z,16.8
2017-09-09T13:23:25.239Z,16.9
2017-09-09T13:24:25.986Z,16.8
2017-09-09T13:25:26.773Z,16.9
2017-09-09T13:26:27.817Z,16.9
2017-09-09T13:27:28.550Z,17.0
2017-09-09T13:28:29.292Z,17.1
2017-09-09T13:29:30.090Z,17.4